Aérodrome :
LOGIN :

S'inscrire | Disclaimer

   EN    FR    IT 

 










Légende :    VFR   VFR Marginal   IFR   IFR Intensif   IFR Très Intensif
Visi : 
Plafond : 
>= 8 km
>= 3000ft
5 à 8 km
1000 à 3000 ft
1500m à 5 km
500 à 1000 ft
800 à 1500m
200 à 500 ft
< 800m
< 200 ft
Symboles :   Orages  Brouillard  Fortes neiges  Fortes précipitations  Vent > 20 kt
SIGMETs :   Divers  Orages  Givrage  Turbulence  Onde Orograph.  Cendres Volcan.






- Altitude de l'aérodrome : 46 ft
- Code IATA : PAF


LPMT - Montijo Air Base

DERNIER METAR :
  • 201700Z 23006KT 200V260 9999 SCT020 SCT030 14/11 Q1007

METARs EXPIRÉS :
  • 201600Z 23006KT 9999 SCT020 SCT030 15/10 Q1007
  • 201500Z 24010KT 9999 VCSH SCT020 SCT030 15/12 Q1007

TAF TAF LPMT
Valide du 20 à 12h jusqu'au 21 à 12h UTC


201107Z 2012/2112 25012KT 9999 FEW020 SCT035
TEMPO 2012/2103 6000 SHRA SCT014 BKN020 FEW025TCU
BECMG 2017/2020 21005KT
BECMG 2102/2104 8000 -RA
TEMPO 2103/2112 5000 RA SCT018 BKN025



MET'MAP, la Météo Aéronautique d'un coup d'oeil ! - Copyright ORBIFLY Décembre 2007 - Disclaimer

ORBIFLY MET'MAP TEAM :

Programmation & Développement : Alexandra Zaïnal
Conception & Développement : Baudouin d'Aumeries
Co-Programmation & Développement : Marc-Olivier Méhu
Soutien technique & logistique : Manuel Goepfert

Contact : metmap@orbifly.com




SOURCES & CREDITS :

   NOAA